createdAt,value
2019-04-21T00:02:03.761Z,15.60
2019-04-21T00:04:48.151Z,15.60
2019-04-21T00:07:36.708Z,15.60
2019-04-21T00:12:22.026Z,15.40
2019-04-21T00:14:46.077Z,15.40
2019-04-21T00:17:12.379Z,15.30
2019-04-21T00:20:09.109Z,15.30
2019-04-21T00:22:42.154Z,15.30
2019-04-21T00:25:13.912Z,15.30
2019-04-21T00:27:47.041Z,15.20
2019-04-21T00:30:21.361Z,15.20
2019-04-21T00:32:41.870Z,15.20
2019-04-21T00:35:06.420Z,15.00
2019-04-21T00:37:53.457Z,14.90
2019-04-21T00:40:22.019Z,14.80
2019-04-21T00:42:51.126Z,14.70
2019-04-21T00:45:18.198Z,14.60
2019-04-21T00:47:58.719Z,14.60
2019-04-21T00:50:34.076Z,14.60
2019-04-21T00:53:19.731Z,14.60
2019-04-21T00:56:03.321Z,14.50
2019-04-21T00:58:26.961Z,14.40
2019-04-21T01:00:46.499Z,14.40
2019-04-21T01:03:23.104Z,14.30
2019-04-21T01:05:51.811Z,14.30
2019-04-21T01:08:21.710Z,14.20
2019-04-21T01:10:43.338Z,14.10
2019-04-21T01:13:23.475Z,14.10
2019-04-21T01:15:57.260Z,14.10
2019-04-21T01:18:20.514Z,14.10
2019-04-21T01:20:32.130Z,14.00
2019-04-21T01:23:02.207Z,13.90
2019-04-21T01:25:40.435Z,13.90
2019-04-21T01:28:18.925Z,13.80
2019-04-21T01:30:55.361Z,13.80
2019-04-21T01:33:27.801Z,13.70
2019-04-21T01:35:54.911Z,13.70
2019-04-21T01:38:31.638Z,13.70
2019-04-21T01:41:00.607Z,13.70
2019-04-21T01:43:27.546Z,13.70
2019-04-21T01:45:53.537Z,13.70
2019-04-21T01:48:28.963Z,13.60
2019-04-21T01:50:55.792Z,13.50
2019-04-21T01:53:48.614Z,13.40
2019-04-21T01:56:43.170Z,13.40
2019-04-21T01:59:00.863Z,13.30
2019-04-21T02:01:39.234Z,13.20
2019-04-21T02:04:13.808Z,13.20
2019-04-21T02:06:49.056Z,13.20
2019-04-21T02:09:13.056Z,13.20
2019-04-21T02:11:50.926Z,13.20
2019-04-21T02:14:19.601Z,13.10
2019-04-21T02:16:48.166Z,13.20
2019-04-21T02:19:15.353Z,13.10
2019-04-21T02:21:38.275Z,13.00
2019-04-21T02:24:31.580Z,13.00
2019-04-21T02:26:47.708Z,13.00
2019-04-21T02:29:22.973Z,12.90
2019-04-21T02:32:01.890Z,12.90
2019-04-21T02:34:32.210Z,12.80
2019-04-21T02:37:21.408Z,12.80
2019-04-21T02:42:03.355Z,12.70
2019-04-21T02:46:58.748Z,12.60
2019-04-21T02:49:50.300Z,12.60
2019-04-21T02:52:14.235Z,12.60
2019-04-21T02:59:50.001Z,12.60
2019-04-21T03:05:21.162Z,12.50
2019-04-21T03:07:52.287Z,12.60
2019-04-21T03:12:41.470Z,12.60
2019-04-21T03:15:22.059Z,12.50
2019-04-21T03:17:49.947Z,12.50
2019-04-21T03:20:17.006Z,12.50
2019-04-21T03:25:33.093Z,12.40
2019-04-21T03:30:38.687Z,12.30
2019-04-21T03:33:32.508Z,12.20
2019-04-21T03:42:57.791Z,12.00
2019-04-21T03:45:58.837Z,12.00
2019-04-21T03:47:53.457Z,12.00
2019-04-21T03:50:29.697Z,11.90
2019-04-21T03:53:16.882Z,11.90
2019-04-21T03:55:51.002Z,11.90
2019-04-21T04:01:04.114Z,11.90
2019-04-21T04:06:55.578Z,12.10
2019-04-21T04:09:25.735Z,11.90
2019-04-21T04:11:53.055Z,11.90
2019-04-21T04:19:40.309Z,11.70
2019-04-21T04:26:55.213Z,11.60
2019-04-21T04:29:24.148Z,11.50
2019-04-21T04:32:14.514Z,11.40
2019-04-21T04:34:48.492Z,11.40
2019-04-21T04:37:23.980Z,11.30
2019-04-21T04:42:26.776Z,11.10
2019-04-21T04:47:16.678Z,11.10
2019-04-21T04:54:52.910Z,11.30
2019-04-21T04:59:47.852Z,11.40
2019-04-21T05:05:05.893Z,11.60
2019-04-21T05:07:27.432Z,11.60
2019-04-21T05:09:52.313Z,11.60
2019-04-21T05:12:25.185Z,11.70
2019-04-21T05:14:51.868Z,11.70
2019-04-21T05:17:30.916Z,11.70
2019-04-21T05:22:25.505Z,11.80
2019-04-21T05:24:44.073Z,11.80
2019-04-21T05:27:36.516Z,11.90
2019-04-21T05:30:17.386Z,11.80
2019-04-21T05:33:07.094Z,11.90
2019-04-21T05:35:56.268Z,12.20
2019-04-21T05:38:34.718Z,12.30
2019-04-21T05:40:57.626Z,12.40
2019-04-21T05:43:39.082Z,12.50
2019-04-21T05:46:04.697Z,12.40
2019-04-21T05:48:39.675Z,12.40
2019-04-21T05:51:08.924Z,12.30
2019-04-21T05:53:42.591Z,12.30
2019-04-21T05:56:20.706Z,12.40
2019-04-21T05:58:43.973Z,12.60
2019-04-21T06:01:30.162Z,12.60
2019-04-21T06:03:51.592Z,12.50
2019-04-21T06:06:20.449Z,12.70
2019-04-21T06:08:49.896Z,12.90
2019-04-21T06:13:55.589Z,13.30
2019-04-21T06:16:43.017Z,13.40
2019-04-21T06:19:00.486Z,13.50
2019-04-21T06:21:25.163Z,13.80
2019-04-21T06:23:49.598Z,14.00
2019-04-21T06:29:13.343Z,14.50
2019-04-21T06:31:58.124Z,14.90
2019-04-21T06:34:00.209Z,15.40
2019-04-21T06:39:22.633Z,16.10
2019-04-21T06:41:49.131Z,16.40
2019-04-21T06:44:22.728Z,16.10
2019-04-21T06:47:03.737Z,16.00
2019-04-21T06:49:19.064Z,16.10
2019-04-21T06:51:48.273Z,16.30
2019-04-21T06:54:57.043Z,16.80
2019-04-21T06:56:54.317Z,17.50
2019-04-21T06:59:28.091Z,18.30
2019-04-21T07:01:59.829Z,18.80
2019-04-21T07:04:31.785Z,19.30
2019-04-21T07:07:00.477Z,19.90
2019-04-21T07:09:31.243Z,19.80
2019-04-21T07:12:02.270Z,20.30
2019-04-21T07:17:08.015Z,20.90
2019-04-21T07:19:34.961Z,21.20
2019-04-21T07:22:03.309Z,21.50
2019-04-21T07:24:36.777Z,21.90
2019-04-21T07:27:10.210Z,22.30
2019-04-21T07:29:39.866Z,22.60
2019-04-21T07:32:12.710Z,22.70
2019-04-21T07:34:37.975Z,23.20
2019-04-21T07:37:06.012Z,23.30
2019-04-21T07:39:33.962Z,23.10
2019-04-21T07:42:04.598Z,22.80
2019-04-21T07:44:35.075Z,23.20
2019-04-21T07:47:11.566Z,23.60
2019-04-21T07:50:14.946Z,23.50
2019-04-21T07:53:08.491Z,24.60
2019-04-21T07:58:02.839Z,25.60
2019-04-21T08:00:47.916Z,25.30
2019-04-21T08:03:07.970Z,26.10
2019-04-21T08:05:39.989Z,26.40
2019-04-21T08:08:08.164Z,26.40
2019-04-21T08:10:38.046Z,27.30
2019-04-21T08:13:09.824Z,28.10
2019-04-21T08:18:16.660Z,29.40
2019-04-21T08:20:46.296Z,29.70
2019-04-21T08:23:13.519Z,29.80
2019-04-21T08:25:53.330Z,29.80
2019-04-21T08:28:11.849Z,30.60
2019-04-21T08:30:43.044Z,29.60
2019-04-21T08:33:24.992Z,29.90
2019-04-21T08:38:20.801Z,30.60
2019-04-21T08:40:57.361Z,30.60
2019-04-21T08:43:27.543Z,30.00
2019-04-21T08:46:05.395Z,31.20
2019-04-21T08:48:23.959Z,32.40
2019-04-21T08:50:53.953Z,32.60
2019-04-21T08:53:26.811Z,33.00
2019-04-21T08:59:05.454Z,33.90
2019-04-21T09:01:43.435Z,33.70
2019-04-21T09:04:13.287Z,34.40
2019-04-21T09:07:00.971Z,34.90
2019-04-21T09:09:16.813Z,34.20
2019-04-21T09:11:42.302Z,34.50
2019-04-21T09:16:44.395Z,36.00
2019-04-21T09:19:22.463Z,36.70
2019-04-21T09:21:52.553Z,37.10
2019-04-21T09:24:17.289Z,37.20
2019-04-21T09:26:46.480Z,36.80
2019-04-21T09:29:10.874Z,37.70
2019-04-21T09:31:36.510Z,37.20
2019-04-21T09:34:04.769Z,36.20
2019-04-21T09:36:38.922Z,35.80
2019-04-21T09:39:12.970Z,37.30
2019-04-21T09:41:39.513Z,38.30
2019-04-21T09:44:17.283Z,38.30
2019-04-21T09:46:46.581Z,39.10
2019-04-21T09:49:13.909Z,38.40
2019-04-21T09:51:41.706Z,38.40
2019-04-21T09:54:18.975Z,38.90
2019-04-21T09:56:52.381Z,37.90
2019-04-21T09:59:20.748Z,37.50
2019-04-21T10:01:55.960Z,38.40
2019-04-21T10:04:14.303Z,38.50
2019-04-21T10:06:43.571Z,38.30
2019-04-21T10:09:14.870Z,38.70
2019-04-21T10:11:43.816Z,39.30
2019-04-21T10:14:13.802Z,39.50
2019-04-21T10:17:05.366Z,40.30
2019-04-21T10:19:34.354Z,40.30
2019-04-21T10:22:05.551Z,40.20
2019-04-21T10:24:34.157Z,40.80
2019-04-21T10:27:05.301Z,41.40
2019-04-21T10:29:36.775Z,40.20
2019-04-21T10:32:05.834Z,40.10
2019-04-21T10:34:34.926Z,40.10
2019-04-21T10:37:04.886Z,39.60
2019-04-21T10:39:33.972Z,39.70
2019-04-21T10:42:03.587Z,39.10
2019-04-21T10:44:32.777Z,38.20
2019-04-21T10:47:02.641Z,39.00
2019-04-21T10:49:32.729Z,40.30
2019-04-21T10:52:05.319Z,41.00
2019-04-21T10:54:49.173Z,40.40
2019-04-21T10:57:10.467Z,40.20
2019-04-21T10:59:47.117Z,41.50
2019-04-21T11:02:16.982Z,42.60
2019-04-21T11:04:46.972Z,42.20
2019-04-21T11:07:45.398Z,41.70
2019-04-21T11:10:05.250Z,39.90
2019-04-21T11:12:36.501Z,39.40
2019-04-21T11:15:07.024Z,41.40
2019-04-21T11:17:36.896Z,42.00
2019-04-21T11:20:06.690Z,39.40
2019-04-21T11:22:36.990Z,39.50
2019-04-21T11:25:07.006Z,41.20
2019-04-21T11:27:37.298Z,40.30
2019-04-21T11:30:07.499Z,37.90
2019-04-21T11:32:37.130Z,36.60
2019-04-21T11:35:07.349Z,35.60
2019-04-21T11:37:37.782Z,36.00
2019-04-21T11:40:12.260Z,37.40
2019-04-21T11:42:40.221Z,37.10
2019-04-21T11:45:10.524Z,37.60
2019-04-21T11:47:43.702Z,38.60
2019-04-21T11:50:12.995Z,38.50
2019-04-21T11:52:43.198Z,38.00
2019-04-21T11:55:12.910Z,39.50
2019-04-21T11:57:46.909Z,40.70
2019-04-21T12:00:15.773Z,41.00
2019-04-21T12:02:45.708Z,41.10
2019-04-21T12:05:15.154Z,40.70
2019-04-21T12:07:45.140Z,41.10
2019-04-21T12:10:15.414Z,40.80
2019-04-21T12:12:45.410Z,40.40
2019-04-21T12:15:14.787Z,40.70
2019-04-21T12:17:44.031Z,39.40
2019-04-21T12:20:14.712Z,39.00
2019-04-21T12:22:45.232Z,39.20
2019-04-21T12:25:15.738Z,39.20
2019-04-21T12:27:45.721Z,39.90
2019-04-21T12:30:15.743Z,41.00
2019-04-21T12:32:52.218Z,40.50
2019-04-21T12:35:21.859Z,40.40
2019-04-21T12:37:51.175Z,39.50
2019-04-21T12:40:20.974Z,39.10
2019-04-21T12:42:50.446Z,38.90
2019-04-21T12:45:19.675Z,39.90
2019-04-21T12:47:50.651Z,40.80
2019-04-21T12:50:21.376Z,40.80
2019-04-21T12:52:51.648Z,40.70
2019-04-21T12:55:23.981Z,40.30
2019-04-21T12:57:51.316Z,37.80
2019-04-21T13:00:20.783Z,37.80
2019-04-21T13:02:49.902Z,37.60
2019-04-21T13:05:19.946Z,38.30
2019-04-21T13:07:49.333Z,39.90
2019-04-21T13:10:20.228Z,39.60
2019-04-21T13:12:50.062Z,39.80
2019-04-21T13:15:19.890Z,40.10
2019-04-21T13:17:50.145Z,39.40
2019-04-21T13:20:19.375Z,37.70
2019-04-21T13:22:48.424Z,37.90
2019-04-21T13:25:18.066Z,37.90
2019-04-21T13:27:47.278Z,36.70
2019-04-21T13:30:18.083Z,37.70
2019-04-21T13:32:47.202Z,36.80
2019-04-21T13:35:17.066Z,36.40
2019-04-21T13:37:46.082Z,34.70
2019-04-21T13:41:05.294Z,34.10
2019-04-21T13:43:21.517Z,33.30
2019-04-21T13:45:51.772Z,32.60
2019-04-21T13:48:22.402Z,32.10
2019-04-21T13:50:51.499Z,32.10
2019-04-21T13:53:20.880Z,32.00
2019-04-21T13:55:50.879Z,31.40
2019-04-21T13:58:20.115Z,31.20
2019-04-21T14:00:50.517Z,30.90
2019-04-21T14:03:22.996Z,30.60
2019-04-21T14:05:50.835Z,30.60
2019-04-21T14:08:21.049Z,30.50
2019-04-21T14:10:51.413Z,30.00
2019-04-21T14:13:20.501Z,29.90
2019-04-21T14:15:51.617Z,30.00
2019-04-21T14:18:20.709Z,29.60
2019-04-21T14:20:51.173Z,29.80
2019-04-21T14:23:28.615Z,29.50
2019-04-21T14:25:51.169Z,29.60
2019-04-21T14:28:20.334Z,29.40
2019-04-21T14:30:50.470Z,29.30
2019-04-21T14:33:20.491Z,29.00
2019-04-21T14:35:50.591Z,28.90
2019-04-21T14:38:20.582Z,29.20
2019-04-21T14:40:50.353Z,28.80
2019-04-21T14:43:20.426Z,29.00
2019-04-21T14:46:24.909Z,28.50
2019-04-21T14:49:25.182Z,28.80
2019-04-21T14:52:01.225Z,29.00
2019-04-21T14:54:56.413Z,29.40
2019-04-21T14:57:25.479Z,29.30
2019-04-21T14:59:55.142Z,29.30
2019-04-21T15:02:25.462Z,29.60
2019-04-21T15:04:55.652Z,29.50
2019-04-21T15:07:25.411Z,29.30
2019-04-21T15:10:04.665Z,29.10
2019-04-21T15:12:25.801Z,29.00
2019-04-21T15:14:56.011Z,28.70
2019-04-21T15:17:27.488Z,28.60
2019-04-21T15:19:59.779Z,28.30
2019-04-21T15:22:26.494Z,28.20
2019-04-21T15:24:56.338Z,28.10
2019-04-21T15:27:25.386Z,28.30
2019-04-21T15:29:54.323Z,28.50
2019-04-21T15:32:24.300Z,28.50
2019-04-21T15:34:54.038Z,28.80
2019-04-21T15:37:24.110Z,29.00
2019-04-21T15:39:53.194Z,28.90
2019-04-21T15:42:22.276Z,28.60
2019-04-21T15:44:52.430Z,28.50
2019-04-21T15:47:22.117Z,28.10
2019-04-21T15:50:04.737Z,27.80
2019-04-21T15:52:29.797Z,27.60
2019-04-21T15:55:10.694Z,27.60
2019-04-21T15:57:56.599Z,27.70
2019-04-21T16:00:34.196Z,27.60
2019-04-21T16:03:04.528Z,27.60
2019-04-21T16:05:34.809Z,27.50
2019-04-21T16:08:04.072Z,27.40
2019-04-21T16:10:42.862Z,27.40
2019-04-21T16:13:05.645Z,27.10
2019-04-21T16:15:34.830Z,27.20
2019-04-21T16:18:03.886Z,27.10
2019-04-21T16:20:33.224Z,27.10
2019-04-21T16:23:02.369Z,26.90
2019-04-21T16:25:32.716Z,26.90
2019-04-21T16:28:01.927Z,27.00
2019-04-21T16:30:31.050Z,27.20
2019-04-21T16:32:59.950Z,27.10
2019-04-21T16:35:29.603Z,27.40
2019-04-21T16:37:59.470Z,27.30
2019-04-21T16:40:41.533Z,27.00
2019-04-21T16:43:00.376Z,26.90
2019-04-21T16:45:30.681Z,26.90
2019-04-21T16:48:01.128Z,27.00
2019-04-21T16:50:31.545Z,26.70
2019-04-21T16:53:10.224Z,26.60
2019-04-21T16:55:48.884Z,26.70
2019-04-21T16:58:32.511Z,26.60
2019-04-21T17:01:15.747Z,26.60
2019-04-21T17:03:42.308Z,26.70
2019-04-21T17:06:11.480Z,26.90
2019-04-21T17:08:40.940Z,26.90
2019-04-21T17:11:17.289Z,26.80
2019-04-21T17:13:42.132Z,26.60
2019-04-21T17:16:40.634Z,26.40
2019-04-21T17:18:56.385Z,26.50
2019-04-21T17:21:14.741Z,26.50
2019-04-21T17:23:44.230Z,26.50
2019-04-21T17:26:13.517Z,26.40
2019-04-21T17:28:42.761Z,26.30
2019-04-21T17:31:12.845Z,26.40
2019-04-21T17:33:43.450Z,26.40
2019-04-21T17:36:12.615Z,26.30
2019-04-21T17:38:41.815Z,26.20
2019-04-21T17:41:21.829Z,26.10
2019-04-21T17:43:41.734Z,26.10
2019-04-21T17:46:13.573Z,26.10
2019-04-21T17:48:42.874Z,26.00
2019-04-21T17:51:17.651Z,26.00
2019-04-21T17:53:53.794Z,26.00
2019-04-21T17:56:51.054Z,25.90
2019-04-21T17:59:09.614Z,25.80
2019-04-21T18:01:45.070Z,25.80
2019-04-21T18:04:15.300Z,25.70
2019-04-21T18:06:55.595Z,25.60
2019-04-21T18:09:36.403Z,25.40
2019-04-21T18:12:01.442Z,25.30
2019-04-21T18:14:13.695Z,25.10
2019-04-21T18:16:46.233Z,24.90
2019-04-21T18:19:15.067Z,24.70
2019-04-21T18:22:06.909Z,24.60
2019-04-21T18:24:45.914Z,24.40
2019-04-21T18:27:08.977Z,24.10
2019-04-21T18:29:36.794Z,24.00
2019-04-21T18:32:06.293Z,23.90
2019-04-21T18:35:08.468Z,23.80
2019-04-21T18:37:52.899Z,23.60
2019-04-21T18:40:34.816Z,23.50
2019-04-21T18:43:46.808Z,23.30
2019-04-21T18:46:20.563Z,23.20
2019-04-21T18:48:52.114Z,23.00
2019-04-21T18:51:34.952Z,22.80
2019-04-21T18:54:24.221Z,22.70
2019-04-21T18:56:31.506Z,22.50
2019-04-21T18:59:00.836Z,22.40
2019-04-21T19:01:34.388Z,22.20
2019-04-21T19:04:05.402Z,22.10
2019-04-21T19:06:45.496Z,22.00
2019-04-21T19:09:26.645Z,21.90
2019-04-21T19:11:56.252Z,21.90
2019-04-21T19:14:33.383Z,21.70
2019-04-21T19:17:11.015Z,21.60
2019-04-21T19:22:04.613Z,21.40
2019-04-21T19:24:37.001Z,21.20
2019-04-21T19:27:05.171Z,21.10
2019-04-21T19:29:32.988Z,21.00
2019-04-21T19:32:11.918Z,21.00
2019-04-21T19:34:24.497Z,20.90
2019-04-21T19:36:55.808Z,20.80
2019-04-21T19:39:37.515Z,20.80
2019-04-21T19:42:00.828Z,20.70
2019-04-21T19:44:37.961Z,20.70
2019-04-21T19:47:09.271Z,20.60
2019-04-21T19:49:45.760Z,20.50
2019-04-21T19:52:03.600Z,20.40
2019-04-21T19:54:33.996Z,20.30
2019-04-21T19:56:56.553Z,20.20
2019-04-21T19:59:34.640Z,20.20
2019-04-21T20:01:58.240Z,20.20
2019-04-21T20:04:34.123Z,20.10
2019-04-21T20:07:16.825Z,20.00
2019-04-21T20:09:47.783Z,20.00
2019-04-21T20:12:19.614Z,20.00
2019-04-21T20:14:55.377Z,19.90
2019-04-21T20:17:13.748Z,19.90
2019-04-21T20:19:32.182Z,19.90
2019-04-21T20:22:01.377Z,19.90
2019-04-21T20:24:33.773Z,19.90
2019-04-21T20:27:07.645Z,19.90
2019-04-21T20:29:49.896Z,19.90
2019-04-21T20:32:26.356Z,19.90
2019-04-21T20:34:58.626Z,19.90
2019-04-21T20:37:21.206Z,19.90
2019-04-21T20:39:46.199Z,20.00
2019-04-21T20:42:22.195Z,20.10
2019-04-21T20:45:13.115Z,19.90
2019-04-21T20:47:20.047Z,19.90
2019-04-21T20:49:50.460Z,19.60
2019-04-21T20:52:30.710Z,19.50
2019-04-21T20:54:53.898Z,19.50
2019-04-21T20:57:27.305Z,19.70
2019-04-21T20:59:57.921Z,19.80
2019-04-21T21:02:26.566Z,19.70
2019-04-21T21:04:51.579Z,19.40
2019-04-21T21:07:40.013Z,19.30
2019-04-21T21:10:04.973Z,19.20
2019-04-21T21:12:37.153Z,19.10
2019-04-21T21:14:57.789Z,19.10
2019-04-21T21:17:49.995Z,19.00
2019-04-21T21:20:07.942Z,19.00
2019-04-21T21:22:37.725Z,18.90
2019-04-21T21:25:03.056Z,18.80
2019-04-21T21:27:33.730Z,18.70
2019-04-21T21:30:05.877Z,18.60
2019-04-21T21:32:37.322Z,18.50
2019-04-21T21:35:07.973Z,18.40
2019-04-21T21:37:44.001Z,18.40
2019-04-21T21:40:14.266Z,18.20
2019-04-21T21:42:28.252Z,18.20
2019-04-21T21:45:01.254Z,18.10
2019-04-21T21:47:45.179Z,17.90
2019-04-21T21:50:07.344Z,17.80
2019-04-21T21:52:39.963Z,17.70
2019-04-21T21:57:44.495Z,17.60
2019-04-21T22:00:12.320Z,17.70
2019-04-21T22:02:44.229Z,17.70
2019-04-21T22:05:16.543Z,17.60
2019-04-21T22:07:42.515Z,17.60
2019-04-21T22:10:12.519Z,17.40
2019-04-21T22:12:51.646Z,17.40
2019-04-21T22:15:18.919Z,17.40
2019-04-21T22:18:06.078Z,17.30
2019-04-21T22:20:35.018Z,17.20
2019-04-21T22:22:54.351Z,17.20
2019-04-21T22:25:22.597Z,17.10
2019-04-21T22:27:46.771Z,17.10
2019-04-21T22:30:26.079Z,17.10
2019-04-21T22:32:53.738Z,17.10
2019-04-21T22:35:28.502Z,17.10
2019-04-21T22:38:01.941Z,16.90
2019-04-21T22:40:29.140Z,16.90
2019-04-21T22:42:59.415Z,16.80
2019-04-21T22:45:21.268Z,16.70
2019-04-21T22:47:51.992Z,16.60
2019-04-21T22:50:26.683Z,16.60
2019-04-21T22:53:01.511Z,16.60
2019-04-21T22:55:29.670Z,16.60
2019-04-21T22:57:59.867Z,16.80
2019-04-21T23:00:30.158Z,16.70
2019-04-21T23:03:07.948Z,16.60
2019-04-21T23:05:36.366Z,16.50
2019-04-21T23:08:04.876Z,16.60
2019-04-21T23:10:31.814Z,16.60
2019-04-21T23:13:05.725Z,16.50
2019-04-21T23:15:38.986Z,16.30
2019-04-21T23:18:23.071Z,16.10
2019-04-21T23:20:53.558Z,16.20
2019-04-21T23:23:22.100Z,16.30
2019-04-21T23:25:47.232Z,16.30
2019-04-21T23:28:16.020Z,16.20
2019-04-21T23:30:54.510Z,16.30
2019-04-21T23:33:10.937Z,16.00
2019-04-21T23:35:41.752Z,16.10
2019-04-21T23:38:10.531Z,16.20
2019-04-21T23:40:39.806Z,16.20
2019-04-21T23:43:14.951Z,16.20
2019-04-21T23:45:44.356Z,16.20
2019-04-21T23:48:27.170Z,16.00
2019-04-21T23:50:50.684Z,15.80
2019-04-21T23:53:13.235Z,15.70
2019-04-21T23:55:43.378Z,15.60
2019-04-21T23:58:18.659Z,15.60
